Terminal Aerodrome Forecast
Issued by NWS

Home | Current Version | Previous Version | Text Only | Print | Product List | Glossary On
Versions: 1 2 3 4 5 6 7 8 9 10 11 12 13 14 15 16 17 18 19 20 21 22 23 24 25 26 27 28 29 30 31 32 33
000
FTUS46 KLOX 252333
TAFLAX
TAF
KLAX 252333Z 2600/2706 27020KT P6SM SCT200
     FM260300 33013KT P6SM SKC
     FM260500 26008KT P6SM SKC
     FM260800 03004KT P6SM SKC
     FM261700 28008KT P6SM SKC
     FM262000 26015KT P6SM SKC
     FM270300 26007KT 5SM BR FEW250=

USA.gov is the U.S. government's official web portal to all federal, state and local government web resources and services.